Time;durP1;ratioP1;P1;durP2;ratioP2;P2;SDS_P1;SDS_P2;PMS_P1;PMS_P2;Temp;Humidity;BMP_temperature;BMP_pressure;BME280_temperature;BME280_humidity;BME280_pressure;Samples;Min_cycle;Max_cycle;Signal;HPM_P1;HPM_P2
2024/03/17 00:01:17;;;;;;;1.90;1.67;;;13.90;53.80;;;;;;5007241;28;22077;-66
2024/03/17 00:03:43;;;;;;;2.10;1.25;;;13.80;53.80;;;;;;5013107;28;20077;-67
2024/03/17 00:06:11;;;;;;;8.50;3.45;;;13.80;54.00;;;;;;5012177;28;20053;-66
2024/03/17 00:08:38;;;;;;;2.30;1.50;;;13.80;54.00;;;;;;5012914;28;20057;-65
2024/03/17 00:11:06;;;;;;;1.58;0.95;;;13.70;54.10;;;;;;5007425;28;20054;-65
2024/03/17 00:13:32;;;;;;;6.22;2.65;;;13.70;54.20;;;;;;5011855;28;20111;-68
2024/03/17 00:15:59;;;;;;;9.40;2.42;;;13.60;54.10;;;;;;5015834;28;20057;-66
2024/03/17 00:18:26;;;;;;;1.90;1.27;;;13.60;54.20;;;;;;5013067;28;20053;-67
2024/03/17 00:20:55;;;;;;;24.58;7.82;;;13.60;54.20;;;;;;5007412;28;20067;-65
2024/03/17 00:23:22;;;;;;;27.17;11.07;;;13.60;54.30;;;;;;5012723;28;20064;-66
2024/03/17 00:25:51;;;;;;;6.55;3.85;;;13.50;54.30;;;;;;4993713;28;20057;-66
2024/03/17 00:28:17;;;;;;;3.38;2.38;;;13.60;54.40;;;;;;4995611;28;20061;-69
2024/03/17 00:30:46;;;;;;;2.83;2.03;;;13.60;55.00;;;;;;5008207;28;20064;-65
2024/03/17 00:33:13;;;;;;;35.05;7.82;;;13.60;54.40;;;;;;5006917;28;20585;-66
2024/03/17 00:35:41;;;;;;;3.75;1.65;;;13.70;54.50;;;;;;5011179;28;20056;-65
2024/03/17 00:38:10;;;;;;;23.27;10.60;;;13.70;54.50;;;;;;5004405;28;20064;-66
2024/03/17 00:40:37;;;;;;;20.08;8.57;;;13.80;54.50;;;;;;5011446;28;20080;-65
2024/03/17 00:43:05;;;;;;;5.13;3.33;;;13.80;54.50;;;;;;5006803;28;20092;-68
2024/03/17 00:45:32;;;;;;;15.60;7.97;;;13.90;55.10;;;;;;5009711;28;20482;-67
2024/03/17 00:47:59;;;;;;;3.17;1.38;;;13.90;54.50;;;;;;5009637;28;20517;-68
2024/03/17 00:50:26;;;;;;;15.40;6.00;;;13.90;54.40;;;;;;5008746;28;20088;-69
2024/03/17 00:52:52;;;;;;;5.22;2.50;;;13.90;54.40;;;;;;5008580;28;20061;-66
2024/03/17 00:55:20;;;;;;;11.95;3.45;;;13.90;54.40;;;;;;5006193;28;20144;-67
2024/03/17 00:57:46;;;;;;;18.33;6.70;;;13.90;54.50;;;;;;5012467;28;20504;-68
2024/03/17 01:00:15;;;;;;;30.98;9.95;;;13.90;54.50;;;;;;5012919;28;20049;-68
2024/03/17 01:02:42;;;;;;;125.85;38.63;;;13.90;54.60;;;;;;5012076;28;20061;-67
2024/03/17 01:05:10;;;;;;;82.40;20.23;;;13.90;55.20;;;;;;5009495;28;20091;-68
2024/03/17 01:07:37;;;;;;;16.70;4.10;;;13.90;54.60;;;;;;5013734;28;20237;-67
2024/03/17 01:10:07;;;;;;;96.05;35.05;;;13.90;54.60;;;;;;5019099;28;20083;-67
2024/03/17 01:12:34;;;;;;;48.28;19.55;;;13.90;54.60;;;;;;5014600;28;20122;-71
2024/03/17 01:15:04;;;;;;;18.90;5.07;;;13.90;54.70;;;;;;5004825;28;20289;-66
2024/03/17 01:17:31;;;;;;;41.75;14.73;;;13.90;54.70;;;;;;5014547;28;20148;-67
2024/03/17 01:19:59;;;;;;;8.90;4.40;;;13.90;54.80;;;;;;5014669;28;20049;-67
2024/03/17 01:22:25;;;;;;;10.48;4.30;;;13.90;54.70;;;;;;5014422;28;20049;-67
2024/03/17 01:24:53;;;;;;;9.80;4.90;;;13.90;54.80;;;;;;5005803;28;20057;-66
2024/03/17 01:27:20;;;;;;;3.60;2.10;;;13.90;55.00;;;;;;4996097;28;20420;-69
2024/03/17 01:29:48;;;;;;;3.58;1.83;;;13.90;54.80;;;;;;5013786;28;20055;-68
2024/03/17 01:32:14;;;;;;;28.20;4.15;;;13.80;54.80;;;;;;5000653;28;20107;-66
2024/03/17 01:34:43;;;;;;;15.73;7.30;;;13.90;54.90;;;;;;4993757;28;20157;-67
2024/03/17 01:37:10;;;;;;;4.20;1.80;;;13.90;54.90;;;;;;5009602;28;20181;-66
2024/03/17 01:39:36;;;;;;;4.45;1.70;;;13.80;54.70;;;;;;4994653;28;20038;-65
2024/03/17 01:42:04;;;;;;;7.38;3.58;;;13.70;54.80;;;;;;5013943;28;20053;-66
2024/03/17 01:44:30;;;;;;;6.50;2.88;;;13.70;54.80;;;;;;5014085;28;20508;-67
2024/03/17 01:47:00;;;;;;;2.40;1.70;;;13.70;54.90;;;;;;4991963;28;20545;-66
2024/03/17 01:49:26;;;;;;;19.05;5.22;;;13.70;54.90;;;;;;5009964;28;20048;-65
2024/03/17 01:51:56;;;;;;;6.93;3.33;;;13.70;55.00;;;;;;4989632;28;20050;-66
2024/03/17 01:54:22;;;;;;;10.35;3.35;;;13.70;55.00;;;;;;4998224;28;20910;-66
2024/03/17 01:56:50;;;;;;;53.50;18.13;;;13.70;55.00;;;;;;5013803;28;20598;-67
2024/03/17 01:59:17;;;;;;;8.10;3.03;;;13.60;54.90;;;;;;4991464;28;20508;-67
2024/03/17 02:01:44;;;;;;;58.30;14.27;;;13.60;55.30;;;;;;5009659;28;20058;-67
2024/03/17 02:04:11;;;;;;;10.60;5.57;;;13.60;55.10;;;;;;5008239;28;20057;-67
2024/03/17 02:06:39;;;;;;;15.75;7.82;;;13.60;55.00;;;;;;5009428;28;20057;-67
2024/03/17 02:09:07;;;;;;;17.30;4.82;;;13.60;55.00;;;;;;5002650;28;20572;-67
2024/03/17 02:11:35;;;;;;;25.17;7.82;;;13.60;55.00;;;;;;4997830;28;20061;-67
2024/03/17 02:14:02;;;;;;;2.85;1.95;;;13.60;55.70;;;;;;5012329;28;20060;-68
2024/03/17 02:16:29;;;;;;;42.13;10.65;;;13.60;55.20;;;;;;5017791;28;20064;-67
2024/03/17 02:18:57;;;;;;;23.40;11.18;;;13.60;55.20;;;;;;5008616;28;20056;-67
2024/03/17 02:21:24;;;;;;;5.80;2.53;;;13.60;55.20;;;;;;5015130;28;20475;-68
2024/03/17 02:23:53;;;;;;;3.28;1.83;;;13.60;55.10;;;;;;5013018;28;20045;-67
2024/03/17 02:26:20;;;;;;;46.17;13.32;;;13.60;55.70;;;;;;4999193;28;20095;-68
2024/03/17 02:28:48;;;;;;;8.05;3.70;;;13.60;55.10;;;;;;5016505;28;20152;-68
2024/03/17 02:31:16;;;;;;;4.15;2.60;;;13.60;55.20;;;;;;4992325;28;20163;-68
2024/03/17 02:33:44;;;;;;;5.07;1.73;;;13.60;55.10;;;;;;5010969;28;20065;-69
2024/03/17 02:36:11;;;;;;;24.58;9.23;;;13.50;55.10;;;;;;5015846;28;20103;-68
2024/03/17 02:41:28;;;;;;;4.05;2.38;;;13.50;55.30;;;;;;5009741;28;20144;-69
2024/03/17 02:43:55;;;;;;;17.40;7.25;;;13.50;55.30;;;;;;5012709;28;20081;-67
2024/03/17 02:46:23;;;;;;;2.47;2.17;;;13.60;55.40;;;;;;5014396;28;20069;-69
2024/03/17 02:48:53;;;;;;;4.45;2.00;;;13.60;55.30;;;;;;5014053;28;20049;-68
2024/03/17 02:51:21;;;;;;;3.08;1.52;;;13.60;55.30;;;;;;5007234;28;20983;-68
2024/03/17 02:53:50;;;;;;;3.10;1.92;;;13.60;55.30;;;;;;5007335;28;20053;-66
2024/03/17 02:56:18;;;;;;;10.38;2.45;;;13.70;55.30;;;;;;5012028;28;20049;-66
2024/03/17 02:58:48;;;;;;;22.15;7.07;;;13.70;55.30;;;;;;5009216;28;20134;-65
2024/03/17 03:01:17;;;;;;;5.30;2.88;;;13.80;55.30;;;;;;4988925;28;22288;-65
2024/03/17 03:03:45;;;;;;;19.58;5.55;;;13.80;55.30;;;;;;5011163;28;20050;-65
2024/03/17 03:06:13;;;;;;;8.82;3.30;;;13.80;55.30;;;;;;5005236;28;20064;-64
2024/03/17 03:08:40;;;;;;;4.32;2.78;;;13.80;55.30;;;;;;4988260;28;20058;-65
2024/03/17 03:11:10;;;;;;;20.55;1.88;;;13.80;55.30;;;;;;5004834;28;20691;-65
2024/03/17 03:13:39;;;;;;;12.30;2.10;;;13.30;55.00;;;;;;5007242;28;20061;-66
2024/03/17 03:16:09;;;;;;;3.40;1.52;;;13.70;55.30;;;;;;5011076;28;20049;-63
2024/03/17 03:18:37;;;;;;;35.78;11.07;;;13.70;55.40;;;;;;5012768;28;20058;-64
2024/03/17 03:21:04;;;;;;;16.15;5.50;;;13.70;55.40;;;;;;5007240;28;20523;-64
2024/03/17 03:23:32;;;;;;;39.78;14.27;;;13.60;55.30;;;;;;4995486;28;20052;-63
2024/03/17 03:26:02;;;;;;;1.92;1.73;;;13.60;55.40;;;;;;5013835;28;20143;-62
2024/03/17 03:28:31;;;;;;;3.95;2.72;;;13.50;55.50;;;;;;5014061;28;20060;-64
2024/03/17 03:30:59;;;;;;;11.57;4.03;;;13.50;55.40;;;;;;5008223;28;20053;-64
2024/03/17 03:33:28;;;;;;;14.65;4.93;;;13.40;55.50;;;;;;5010931;28;20107;-67
2024/03/17 03:35:56;;;;;;;19.95;9.38;;;13.30;55.70;;;;;;5012532;28;21048;-64
2024/03/17 03:38:24;;;;;;;15.75;6.38;;;13.20;55.60;;;;;;5015292;28;20158;-64
2024/03/17 03:40:52;;;;;;;4.15;3.03;;;13.20;55.70;;;;;;5011824;28;20049;-65
2024/03/17 03:43:21;;;;;;;27.75;8.13;;;13.10;55.70;;;;;;4999721;28;20053;-63
2024/03/17 03:45:48;;;;;;;38.25;10.73;;;13.10;55.70;;;;;;5013627;28;20049;-64
2024/03/17 03:48:15;;;;;;;8.68;3.97;;;13.00;55.80;;;;;;5015155;28;20061;-65
2024/03/17 03:50:44;;;;;;;14.10;5.57;;;13.00;55.90;;;;;;5008734;28;20053;-63
2024/03/17 03:53:12;;;;;;;8.82;2.25;;;13.10;56.00;;;;;;5006875;28;20049;-63
2024/03/17 03:55:39;;;;;;;2.28;1.90;;;13.10;55.90;;;;;;5015830;28;20057;-66
2024/03/17 03:58:06;;;;;;;8.98;3.55;;;13.10;55.90;;;;;;5013400;28;20123;-64
2024/03/17 04:00:34;;;;;;;1.80;1.42;;;13.10;56.60;;;;;;5012784;28;20065;-68
2024/03/17 04:03:02;;;;;;;2.63;2.03;;;13.10;56.00;;;;;;5004249;28;20800;-65
2024/03/17 04:05:29;;;;;;;15.00;4.78;;;13.10;55.90;;;;;;5014227;28;20495;-62
2024/03/17 04:07:59;;;;;;;4.82;1.98;;;13.10;55.90;;;;;;5011812;28;20495;-63
2024/03/17 04:10:26;;;;;;;2.80;2.15;;;13.10;56.00;;;;;;4997710;28;20053;-63
2024/03/17 04:12:54;;;;;;;2.45;2.22;;;13.10;55.80;;;;;;5012681;28;20140;-63
2024/03/17 04:15:21;;;;;;;2.65;2.20;;;13.00;55.90;;;;;;4994499;28;20144;-63
2024/03/17 04:17:49;;;;;;;28.13;6.38;;;13.10;56.00;;;;;;5008412;28;20053;-64
2024/03/17 04:20:16;;;;;;;5.90;3.00;;;13.00;56.00;;;;;;5018036;28;20064;-67
2024/03/17 04:22:43;;;;;;;10.82;4.68;;;13.10;56.00;;;;;;5013376;28;20087;-64
2024/03/17 04:25:14;;;;;;;24.52;6.25;;;13.10;56.00;;;;;;5004363;28;20601;-62
2024/03/17 04:27:41;;;;;;;1.83;1.63;;;13.10;56.10;;;;;;4998269;28;20060;-68
2024/03/17 04:30:09;;;;;;;8.93;4.47;;;13.10;56.00;;;;;;5011553;28;20508;-64
2024/03/17 04:32:35;;;;;;;3.00;1.42;;;13.10;56.00;;;;;;5009011;28;20053;-65
2024/03/17 04:35:02;;;;;;;2.03;1.85;;;13.10;56.00;;;;;;5007804;28;20451;-63
2024/03/17 04:37:30;;;;;;;7.25;2.38;;;13.10;57.30;;;;;;5011649;28;20054;-62
2024/03/17 04:39:57;;;;;;;5.03;3.08;;;13.10;56.10;;;;;;5014353;28;20051;-63
2024/03/17 04:42:26;;;;;;;13.13;2.80;;;13.10;56.10;;;;;;5009933;28;20088;-64
2024/03/17 04:44:53;;;;;;;4.72;2.72;;;13.00;56.00;;;;;;5011085;28;20054;-64
2024/03/17 04:47:20;;;;;;;7.43;3.22;;;13.00;56.10;;;;;;5007563;28;20057;-64
2024/03/17 04:49:48;;;;;;;6.80;3.90;;;13.00;56.10;;;;;;5004486;28;20086;-67
2024/03/17 04:52:16;;;;;;;1.80;1.15;;;13.00;56.10;;;;;;5013458;28;20857;-64
2024/03/17 04:54:43;;;;;;;4.20;2.35;;;13.00;56.10;;;;;;5013139;28;20068;-63
2024/03/17 04:57:10;;;;;;;5.65;2.30;;;13.00;56.10;;;;;;5009303;28;20065;-64
2024/03/17 04:59:39;;;;;;;7.63;1.58;;;13.00;56.10;;;;;;5013648;28;20144;-63
2024/03/17 05:02:07;;;;;;;2.88;2.20;;;13.00;56.10;;;;;;5004099;28;20046;-62
2024/03/17 05:04:34;;;;;;;11.90;2.47;;;13.00;56.10;;;;;;5006549;28;20061;-65
2024/03/17 05:07:01;;;;;;;3.83;1.70;;;12.90;56.10;;;;;;4988522;28;20501;-64
2024/03/17 05:09:29;;;;;;;3.20;2.35;;;12.80;56.10;;;;;;5000390;28;20429;-63
2024/03/17 05:11:56;;;;;;;3.17;1.25;;;12.70;56.20;;;;;;5010775;28;20634;-64
2024/03/17 05:14:25;;;;;;;3.92;1.77;;;12.70;56.30;;;;;;5009947;28;20701;-63
2024/03/17 05:16:53;;;;;;;6.40;3.58;;;12.60;56.40;;;;;;5011695;28;20064;-63
2024/03/17 05:19:21;;;;;;;2.33;1.17;;;12.70;56.50;;;;;;5004481;28;20072;-63
2024/03/17 05:21:48;;;;;;;8.35;5.05;;;12.70;57.20;;;;;;5013012;28;20076;-64
2024/03/17 05:24:17;;;;;;;4.50;2.42;;;12.70;56.40;;;;;;5011985;28;20145;-63
2024/03/17 05:26:45;;;;;;;2.95;2.45;;;12.80;56.40;;;;;;5014215;28;20061;-62
2024/03/17 05:29:12;;;;;;;2.08;1.90;;;12.80;56.30;;;;;;4990170;28;20276;-65
2024/03/17 05:31:40;;;;;;;3.25;2.08;;;12.80;56.40;;;;;;5012921;28;20092;-63
2024/03/17 05:34:10;;;;;;;8.40;3.08;;;12.80;56.40;;;;;;5006839;28;20608;-62
2024/03/17 05:36:37;;;;;;;9.35;2.95;;;12.70;56.40;;;;;;5011098;28;20115;-63
2024/03/17 05:39:04;;;;;;;4.57;3.10;;;12.80;56.50;;;;;;4989847;28;20057;-63
2024/03/17 05:41:31;;;;;;;3.97;2.15;;;12.80;56.50;;;;;;4995466;28;20109;-63
2024/03/17 05:44:00;;;;;;;3.67;2.58;;;12.90;56.40;;;;;;5011204;28;20054;-64
2024/03/17 05:46:27;;;;;;;2.17;1.60;;;12.90;56.30;;;;;;5017689;28;20061;-63
2024/03/17 05:48:55;;;;;;;2.92;2.25;;;13.00;56.30;;;;;;5011926;28;20065;-65
2024/03/17 05:51:27;;;;;;;5.32;2.92;;;13.00;56.30;;;;;;5012975;28;20140;-62
2024/03/17 05:53:55;;;;;;;3.08;2.22;;;13.10;56.30;;;;;;5013580;28;20060;-64
2024/03/17 05:56:23;;;;;;;3.58;2.22;;;13.20;56.30;;;;;;5012807;28;20111;-66
2024/03/17 05:58:51;;;;;;;3.15;1.98;;;13.20;56.20;;;;;;5012940;28;20289;-64
2024/03/17 06:01:19;;;;;;;5.78;1.92;;;13.20;56.20;;;;;;5004948;28;22022;-63
2024/03/17 06:03:47;;;;;;;5.55;3.42;;;13.30;56.20;;;;;;5016959;28;20877;-65
2024/03/17 06:06:14;;;;;;;3.05;2.00;;;13.30;56.20;;;;;;5016343;28;20439;-63
2024/03/17 06:08:43;;;;;;;4.70;1.88;;;13.20;56.10;;;;;;5015404;28;20053;-64
2024/03/17 06:11:12;;;;;;;5.22;2.38;;;13.30;56.30;;;;;;5008504;28;20045;-63
2024/03/17 06:13:39;;;;;;;2.13;1.45;;;13.30;56.30;;;;;;5018083;28;20084;-63
2024/03/17 06:16:06;;;;;;;8.75;1.92;;;13.30;56.20;;;;;;5014755;28;20053;-63
2024/03/17 06:18:33;;;;;;;1.95;1.75;;;13.30;56.30;;;;;;5016482;28;20818;-63
2024/03/17 06:21:01;;;;;;;2.22;1.73;;;13.30;56.40;;;;;;5007296;28;20045;-63
2024/03/17 06:23:28;;;;;;;6.72;1.85;;;13.40;56.40;;;;;;5005908;28;20128;-64
2024/03/17 06:25:57;;;;;;;9.20;4.47;;;13.50;56.50;;;;;;5014753;28;20516;-64
2024/03/17 06:28:26;;;;;;;2.03;1.30;;;13.60;56.80;;;;;;5016657;28;20088;-64
2024/03/17 06:30:59;;;;;;;2.50;1.73;;;13.80;56.30;;;;;;5011658;28;20048;-63
2024/03/17 06:33:27;;;;;;;5.15;2.25;;;13.80;56.20;;;;;;5016612;28;20154;-63
2024/03/17 06:35:56;;;;;;;6.13;3.08;;;13.80;56.10;;;;;;5012370;28;20057;-63
2024/03/17 06:38:23;;;;;;;2.08;1.88;;;13.90;56.20;;;;;;4996000;28;20123;-64
2024/03/17 06:40:51;;;;;;;2.47;1.40;;;13.90;56.10;;;;;;4997071;28;20144;-68
2024/03/17 06:43:20;;;;;;;1.60;1.50;;;14.00;56.10;;;;;;5014032;28;20056;-66
2024/03/17 06:45:58;;;;;;;2.45;2.03;;;14.00;56.00;;;;;;5015724;28;20467;-62
2024/03/17 06:48:25;;;;;;;4.30;1.42;;;14.00;56.10;;;;;;5016928;28;20095;-63
2024/03/17 06:50:54;;;;;;;2.72;1.75;;;14.00;56.00;;;;;;5011088;28;20060;-62
2024/03/17 06:53:21;;;;;;;3.90;2.05;;;14.10;56.10;;;;;;4999019;28;20059;-63
2024/03/17 06:55:55;;;;;;;3.67;2.10;;;14.20;56.30;;;;;;5012213;28;20042;-62
2024/03/17 06:58:26;;;;;;;2.95;1.50;;;14.20;56.00;;;;;;5017309;28;20260;-63
2024/03/17 07:00:59;;;;;;;4.57;2.15;;;14.20;56.00;;;;;;4987338;28;20649;-62
2024/03/17 07:03:26;;;;;;;3.85;1.55;;;14.20;56.10;;;;;;5015384;28;20130;-66
2024/03/17 07:05:55;;;;;;;4.15;1.42;;;14.20;56.10;;;;;;5009722;28;20060;-63
2024/03/17 07:08:22;;;;;;;3.25;2.08;;;14.20;56.60;;;;;;5012174;28;20057;-62
2024/03/17 07:10:57;;;;;;;4.40;2.40;;;14.20;56.20;;;;;;5011212;28;20041;-64
2024/03/17 07:13:26;;;;;;;3.55;1.83;;;14.40;56.30;;;;;;5013084;28;20177;-64
2024/03/17 07:15:54;;;;;;;7.25;2.67;;;14.60;56.30;;;;;;5014631;28;20115;-63
2024/03/17 07:18:21;;;;;;;2.42;1.77;;;14.80;56.20;;;;;;5012804;28;20049;-63
2024/03/17 07:20:48;;;;;;;1.83;1.25;;;14.90;55.80;;;;;;4995615;28;20540;-64
2024/03/17 07:23:16;;;;;;;1.50;1.40;;;15.00;56.00;;;;;;5005224;28;20554;-66
2024/03/17 07:25:52;;;;;;;1.48;1.35;;;15.10;55.90;;;;;;5011633;28;20055;-66
2024/03/17 07:28:19;;;;;;;2.83;1.80;;;15.20;55.80;;;;;;5005253;28;20143;-58
2024/03/17 07:30:49;;;;;;;4.57;2.65;;;15.40;55.70;;;;;;5010727;28;20061;-58
2024/03/17 07:33:17;;;;;;;9.65;3.50;;;15.40;56.20;;;;;;5004371;28;20166;-61
2024/03/17 07:35:51;;;;;;;3.38;1.77;;;15.50;55.60;;;;;;5012298;28;20049;-61
2024/03/17 07:38:19;;;;;;;11.05;2.75;;;15.60;55.60;;;;;;5011195;28;20651;-59
2024/03/17 07:40:57;;;;;;;4.32;2.00;;;15.60;55.40;;;;;;5006410;28;20267;-60
2024/03/17 07:43:25;;;;;;;6.10;2.65;;;15.70;55.60;;;;;;5024574;28;20069;-60
2024/03/17 07:46:03;;;;;;;1.98;1.75;;;15.70;55.50;;;;;;5013533;28;20053;-62
2024/03/17 07:48:32;;;;;;;2.72;2.17;;;15.80;55.80;;;;;;5015102;28;20163;-59
2024/03/17 07:51:03;;;;;;;4.03;2.22;;;16.00;55.80;;;;;;5003911;28;20053;-59
2024/03/17 07:53:30;;;;;;;5.60;2.53;;;16.30;56.50;;;;;;5011388;28;20061;-59
2024/03/17 07:55:59;;;;;;;4.55;2.15;;;16.70;55.80;;;;;;5011144;28;20049;-60
2024/03/17 07:58:27;;;;;;;3.20;2.20;;;17.10;55.60;;;;;;4991846;28;20050;-58
2024/03/17 08:00:59;;;;;;;3.08;1.90;;;17.50;55.20;;;;;;5004921;28;20464;-60
2024/03/17 08:03:28;;;;;;;2.72;1.70;;;18.00;55.40;;;;;;5004727;28;20061;-58
2024/03/17 08:05:55;;;;;;;3.92;2.40;;;19.40;55.80;;;;;;5014201;28;20050;-59
2024/03/17 08:08:23;;;;;;;4.15;1.77;;;20.30;53.40;;;;;;5011922;28;20049;-59
2024/03/17 08:10:51;;;;;;;2.78;1.85;;;20.90;52.60;;;;;;5013933;28;20069;-60
2024/03/17 08:13:19;;;;;;;4.30;1.88;;;21.30;51.50;;;;;;4989096;28;20041;-62
2024/03/17 08:15:47;;;;;;;2.35;1.52;;;21.40;50.80;;;;;;5011901;28;20146;-59
2024/03/17 08:18:15;;;;;;;3.13;1.80;;;21.60;50.40;;;;;;4996560;28;20073;-59
2024/03/17 08:20:46;;;;;;;1.63;1.38;;;21.90;50.30;;;;;;5010290;28;20147;-61
2024/03/17 08:23:14;;;;;;;2.30;1.30;;;22.20;50.00;;;;;;5007098;28;21174;-59
2024/03/17 08:25:41;;;;;;;5.13;1.70;;;22.80;50.00;;;;;;5010002;28;20069;-60
2024/03/17 08:28:09;;;;;;;7.70;1.50;;;23.30;49.40;;;;;;5012634;28;20715;-60
2024/03/17 08:30:36;;;;;;;2.75;1.42;;;23.80;48.70;;;;;;5009642;28;20049;-58
2024/03/17 08:33:03;;;;;;;3.72;1.80;;;24.40;48.20;;;;;;5004300;28;20050;-56
2024/03/17 08:35:30;;;;;;;2.97;1.90;;;24.70;47.50;;;;;;5016129;28;20044;-59
2024/03/17 08:38:00;;;;;;;1.67;1.10;;;25.10;47.30;;;;;;5005780;28;20180;-60
2024/03/17 08:40:28;;;;;;;1.92;1.40;;;25.80;46.30;;;;;;5012801;28;20802;-65
2024/03/17 08:42:55;;;;;;;2.55;1.20;;;26.50;45.90;;;;;;5006030;28;20165;-58
2024/03/17 08:45:23;;;;;;;4.47;1.27;;;27.40;45.70;;;;;;5013257;28;20052;-60
2024/03/17 08:47:53;;;;;;;2.70;1.42;;;28.40;45.40;;;;;;5012198;28;20538;-64
2024/03/17 08:50:20;;;;;;;2.08;1.52;;;28.90;43.80;;;;;;5009729;28;20429;-62
2024/03/17 08:52:47;;;;;;;3.58;1.42;;;29.80;44.00;;;;;;5011018;28;20049;-64
2024/03/17 08:55:16;;;;;;;1.77;1.42;;;30.70;43.00;;;;;;5008687;28;20067;-63
2024/03/17 08:57:43;;;;;;;6.25;1.55;;;31.60;42.30;;;;;;5009978;28;20666;-61
2024/03/17 09:00:11;;;;;;;2.13;0.93;;;32.30;41.50;;;;;;5012462;28;20080;-62
2024/03/17 09:02:40;;;;;;;0.90;0.90;;;32.80;41.10;;;;;;5008017;28;21256;-62
2024/03/17 09:05:08;;;;;;;1.50;0.93;;;33.10;40.80;;;;;;4997945;28;20057;-61
2024/03/17 09:07:35;;;;;;;1.75;1.13;;;33.30;39.50;;;;;;5007687;28;20574;-60
2024/03/17 09:10:02;;;;;;;1.40;0.98;;;33.30;39.00;;;;;;5014658;28;20053;-62
2024/03/17 09:12:31;;;;;;;1.73;1.02;;;33.50;39.00;;;;;;5004945;28;20637;-62
2024/03/17 09:14:59;;;;;;;1.20;1.05;;;34.10;38.80;;;;;;5001573;28;20046;-61
2024/03/17 09:17:26;;;;;;;7.68;1.15;;;34.60;37.60;;;;;;5009239;28;20471;-61
2024/03/17 09:19:53;;;;;;;2.95;1.20;;;34.30;36.50;;;;;;5012078;28;20079;-63
2024/03/17 09:22:21;;;;;;;2.78;1.20;;;33.70;36.20;;;;;;5016484;28;20484;-62
2024/03/17 09:24:48;;;;;;;1.42;1.13;;;33.00;36.20;;;;;;5015896;28;20053;-61
2024/03/17 09:27:18;;;;;;;3.40;1.70;;;32.70;37.10;;;;;;5007466;28;22721;-62
2024/03/17 09:29:48;;;;;;;5.60;1.50;;;33.30;38.10;;;;;;5015339;28;20060;-63
2024/03/17 09:32:17;;;;;;;9.73;1.85;;;34.20;36.70;;;;;;5012629;28;20050;-64
2024/03/17 09:34:48;;;;;;;1.65;1.40;;;34.70;35.70;;;;;;5005622;28;20065;-62
2024/03/17 09:37:16;;;;;;;3.33;1.70;;;34.80;35.10;;;;;;5006054;28;20500;-64
2024/03/17 09:39:43;;;;;;;5.05;1.60;;;35.40;35.00;;;;;;5016090;28;20848;-61
2024/03/17 09:42:18;;;;;;;5.07;1.60;;;35.30;33.90;;;;;;5013779;28;20457;-61
2024/03/17 09:44:49;;;;;;;2.15;1.58;;;34.90;33.60;;;;;;5013936;28;20061;-61
2024/03/17 09:47:20;;;;;;;3.72;2.22;;;34.90;34.20;;;;;;5005331;28;20057;-60
2024/03/17 09:49:48;;;;;;;10.57;2.67;;;34.80;34.10;;;;;;5010591;28;20104;-60
2024/03/17 09:52:20;;;;;;;3.13;2.10;;;34.20;33.40;;;;;;5013018;28;20041;-64
2024/03/17 09:54:50;;;;;;;1.98;1.73;;;33.90;33.40;;;;;;5015297;28;20068;-62
2024/03/17 09:57:18;;;;;;;5.85;2.08;;;33.10;33.10;;;;;;5009962;28;20081;-65
2024/03/17 09:59:53;;;;;;;2.30;1.80;;;31.90;33.10;;;;;;5013677;28;20046;-61
2024/03/17 10:02:21;;;;;;;4.78;2.03;;;31.30;34.60;;;;;;5015815;28;20056;-61
2024/03/17 10:04:48;;;;;;;3.30;1.75;;;32.10;35.30;;;;;;5012860;28;20069;-61
2024/03/17 10:07:16;;;;;;;3.17;1.63;;;32.80;34.40;;;;;;5009621;28;20900;-62
2024/03/17 10:09:45;;;;;;;3.58;1.77;;;33.20;33.90;;;;;;5016579;28;20073;-62
2024/03/17 10:12:28;;;;;;;2.80;1.58;;;33.80;33.80;;;;;;4999486;28;20104;-62
2024/03/17 10:15:01;;;;;;;2.10;1.63;;;34.90;33.20;;;;;;5009228;28;20057;-63
2024/03/17 10:17:33;;;;;;;6.80;1.60;;;35.10;31.90;;;;;;5011995;28;20045;-62
2024/03/17 10:20:16;;;;;;;5.15;2.35;;;35.30;32.30;;;;;;5011284;28;20127;-63
2024/03/17 10:23:02;;;;;;;3.60;1.88;;;36.00;32.20;;;;;;5011632;28;20053;-61
2024/03/17 10:25:30;;;;;;;3.80;2.38;;;36.90;31.40;;;;;;5014577;28;20062;-61
2024/03/17 10:27:58;;;;;;;3.40;2.10;;;36.80;30.40;;;;;;5014391;28;20053;-61
2024/03/17 10:30:28;;;;;;;9.75;1.58;;;36.40;30.30;;;;;;5014396;28;20053;-61
2024/03/17 10:32:58;;;;;;;3.47;1.60;;;35.10;29.90;;;;;;5009916;28;20132;-61
2024/03/17 10:35:33;;;;;;;7.32;2.50;;;33.60;30.60;;;;;;5011462;28;20062;-61
2024/03/17 10:38:01;;;;;;;;;;;33.30;31.90;;;;;;5015029;28;20062;-61
2024/03/17 10:40:30;;;;;;;8.32;1.98;;;33.90;32.60;;;;;;5014979;28;20383;-60
2024/03/17 10:43:00;;;;;;;2.97;1.88;;;34.20;31.80;;;;;;5012358;28;20057;-60
2024/03/17 10:45:31;;;;;;;2.95;1.95;;;34.80;31.20;;;;;;5012462;28;20554;-61
2024/03/17 10:48:01;;;;;;;4.63;1.90;;;35.10;30.70;;;;;;5015631;28;20089;-63
2024/03/17 10:50:31;;;;;;;4.45;2.30;;;35.70;30.40;;;;;;5010682;28;20061;-64
2024/03/17 10:53:03;;;;;;;4.00;2.60;;;35.90;29.60;;;;;;5010586;28;20107;-60
2024/03/17 10:55:40;;;;;;;7.10;1.95;;;35.30;29.50;;;;;;5013945;28;20065;-61
2024/03/17 10:58:14;;;;;;;4.05;2.25;;;35.00;29.50;;;;;;5011248;28;20436;-61
2024/03/17 11:00:46;;;;;;;3.00;2.22;;;33.80;29.60;;;;;;4996739;28;20046;-61
2024/03/17 11:03:15;;;;;;;3.65;2.38;;;32.90;30.10;;;;;;5004588;28;20057;-63
2024/03/17 11:05:43;;;;;;;8.27;2.33;;;32.20;30.50;;;;;;5011646;28;20057;-62
2024/03/17 11:08:16;;;;;;;7.07;2.33;;;31.60;31.00;;;;;;5011403;28;20041;-61
2024/03/17 11:10:52;;;;;;;4.70;2.15;;;31.60;31.20;;;;;;5012482;28;20053;-63
2024/03/17 11:13:24;;;;;;;3.08;2.13;;;31.60;30.80;;;;;;4990864;28;20054;-63
2024/03/17 11:15:55;;;;;;;7.43;3.00;;;31.30;30.80;;;;;;5009613;28;20069;-64
2024/03/17 11:18:38;;;;;;;4.72;2.42;;;31.00;31.10;;;;;;4996065;28;20144;-61
2024/03/17 11:21:25;;;;;;;3.17;1.95;;;30.40;31.20;;;;;;5002631;28;20056;-61
2024/03/17 11:24:01;;;;;;;7.47;2.80;;;29.50;31.40;;;;;;5005563;28;20137;-63
2024/03/17 11:26:30;;;;;;;13.23;2.40;;;28.00;32.00;;;;;;5013314;28;20073;-61
2024/03/17 11:28:58;;;;;;;2.63;2.03;;;26.90;33.20;;;;;;4999652;28;20056;-64
2024/03/17 11:31:44;;;;;;;3.45;1.83;;;25.80;33.80;;;;;;5011764;28;20053;-61
2024/03/17 11:34:35;;;;;;;3.55;2.13;;;24.80;34.80;;;;;;5010713;28;20048;-61
2024/03/17 11:37:08;;;;;;;3.25;2.20;;;24.10;35.80;;;;;;5003503;28;20430;-62
2024/03/17 11:39:57;;;;;;;9.50;2.05;;;23.60;36.40;;;;;;5009719;28;20670;-60
2024/03/17 11:42:27;;;;;;;2.63;1.98;;;23.10;37.00;;;;;;5003360;28;20583;-62
2024/03/17 11:45:01;;;;;;;4.65;1.63;;;22.80;37.50;;;;;;5010987;28;20097;-58
2024/03/17 11:47:42;;;;;;;8.18;3.17;;;22.50;38.00;;;;;;4987344;28;20073;-61
2024/03/17 11:50:12;;;;;;;2.35;1.70;;;22.40;38.30;;;;;;4990831;28;20068;-61
2024/03/17 11:52:44;;;;;;;9.77;1.70;;;22.30;38.40;;;;;;4993775;28;20164;-59
2024/03/17 11:55:17;;;;;;;4.88;2.13;;;22.20;38.40;;;;;;4984051;28;20121;-63
2024/03/17 11:57:46;;;;;;;4.28;2.10;;;21.90;38.70;;;;;;4993597;28;20053;-61
2024/03/17 12:00:30;;;;;;;9.15;2.28;;;21.80;38.80;;;;;;4991564;28;20050;-60
2024/03/17 12:03:00;;;;;;;4.43;2.17;;;21.60;39.00;;;;;;4983649;28;20034;-59
2024/03/17 12:05:27;;;;;;;4.10;1.98;;;21.60;39.10;;;;;;4992386;28;20080;-59
2024/03/17 12:07:54;;;;;;;3.63;1.77;;;21.50;39.20;;;;;;4974972;28;20053;-65
2024/03/17 12:10:20;;;;;;;4.72;1.98;;;21.50;39.30;;;;;;4992944;28;20061;-64
2024/03/17 12:12:48;;;;;;;7.05;1.83;;;21.60;39.50;;;;;;4991575;28;20482;-63
2024/03/17 12:15:18;;;;;;;9.15;2.80;;;21.50;39.40;;;;;;4984342;28;20053;-61
2024/03/17 12:17:45;;;;;;;4.05;1.88;;;21.60;39.50;;;;;;4965784;28;20373;-64
2024/03/17 12:20:20;;;;;;;3.35;1.60;;;21.70;39.70;;;;;;4994401;28;20046;-61
2024/03/17 12:22:50;;;;;;;3.60;1.98;;;21.90;39.60;;;;;;4991026;28;20107;-62
2024/03/17 12:25:18;;;;;;;5.88;2.58;;;22.10;39.70;;;;;;4989388;28;20999;-61
2024/03/17 12:27:46;;;;;;;2.40;1.60;;;22.30;39.50;;;;;;4990280;28;20144;-61
2024/03/17 12:30:13;;;;;;;5.18;1.67;;;22.40;39.40;;;;;;4993542;28;20507;-61
2024/03/17 12:32:41;;;;;;;3.65;2.05;;;22.40;39.30;;;;;;4992948;28;20057;-64
2024/03/17 12:35:14;;;;;;;3.67;1.60;;;22.50;39.20;;;;;;4969130;28;20061;-60
2024/03/17 12:37:45;;;;;;;6.18;2.22;;;22.50;39.30;;;;;;4993641;28;20058;-61
2024/03/17 12:40:23;;;;;;;5.95;2.30;;;22.50;39.20;;;;;;4989818;28;20062;-61
2024/03/17 12:42:51;;;;;;;1.70;1.60;;;22.50;39.30;;;;;;4993962;28;20473;-62
2024/03/17 12:45:22;;;;;;;6.60;1.75;;;22.50;39.30;;;;;;4987663;28;20105;-62
2024/03/17 12:47:51;;;;;;;3.78;1.73;;;22.60;39.50;;;;;;4991187;28;20564;-61
2024/03/17 12:50:17;;;;;;;3.47;1.52;;;22.80;39.60;;;;;;4991575;28;20060;-60
2024/03/17 12:52:57;;;;;;;2.20;1.70;;;22.80;39.00;;;;;;4975913;28;20053;-62
2024/03/17 13:01:00;;;;;;;3.53;1.50;;;22.80;39.20;;;;;;4985135;28;20062;-64
2024/03/17 13:03:29;;;;;;;2.45;1.50;;;23.00;39.30;;;;;;4996767;28;20057;-61